createdAt,value
2022-09-20T00:01:48.609Z,0.70
2022-09-20T00:04:15.649Z,1.15
2022-09-20T00:06:42.679Z,1.20
2022-09-20T00:09:09.729Z,1.30
2022-09-20T00:11:37.457Z,1.35
2022-09-20T00:14:06.469Z,1.42
2022-09-20T00:16:35.153Z,0.95
2022-09-20T00:19:07.232Z,1.30
2022-09-20T00:21:36.426Z,1.13
2022-09-20T00:24:03.968Z,1.20
2022-09-20T00:26:31.078Z,1.02
2022-09-20T00:28:58.894Z,1.83
2022-09-20T00:31:26.026Z,1.38
2022-09-20T00:34:15.434Z,0.80
2022-09-20T00:36:42.826Z,1.27
2022-09-20T00:39:11.723Z,1.00
2022-09-20T00:41:38.726Z,0.93
2022-09-20T00:44:24.442Z,0.98
2022-09-20T00:46:51.610Z,1.67
2022-09-20T00:49:21.831Z,1.33
2022-09-20T00:52:01.600Z,1.55
2022-09-20T00:54:30.011Z,1.10
2022-09-20T00:56:57.423Z,0.90
2022-09-20T00:59:25.510Z,0.80
2022-09-20T01:01:54.856Z,0.90
2022-09-20T01:04:23.099Z,0.82
2022-09-20T01:06:53.098Z,0.70
2022-09-20T01:09:20.444Z,1.08
2022-09-20T01:11:47.827Z,1.55
2022-09-20T01:14:18.815Z,0.95
2022-09-20T01:16:45.890Z,1.17
2022-09-20T01:19:39.279Z,0.65
2022-09-20T01:22:11.032Z,0.90
2022-09-20T01:24:38.163Z,0.60
2022-09-20T01:27:14.511Z,1.70
2022-09-20T01:29:53.834Z,1.23
2022-09-20T01:32:23.224Z,1.23
2022-09-20T01:35:01.548Z,1.17
2022-09-20T01:37:33.136Z,1.00
2022-09-20T01:40:06.586Z,1.10
2022-09-20T01:42:35.183Z,1.08
2022-09-20T01:45:06.685Z,1.60
2022-09-20T01:47:55.664Z,1.48
2022-09-20T01:50:22.639Z,1.30
2022-09-20T01:53:06.488Z,0.90
2022-09-20T01:55:44.663Z,1.40
2022-09-20T01:58:20.474Z,1.10
2022-09-20T02:01:03.945Z,1.30
2022-09-20T02:03:47.435Z,1.25
2022-09-20T02:06:19.455Z,0.93
2022-09-20T02:09:05.235Z,1.02
2022-09-20T02:11:43.720Z,1.45
2022-09-20T02:14:14.030Z,1.40
2022-09-20T02:16:45.295Z,1.52
2022-09-20T02:19:15.455Z,1.30
2022-09-20T02:22:02.724Z,1.45
2022-09-20T02:24:36.419Z,1.50
2022-09-20T02:27:03.553Z,1.63
2022-09-20T02:29:43.012Z,1.58
2022-09-20T02:32:24.194Z,1.23
2022-09-20T02:35:11.767Z,1.48
2022-09-20T02:37:57.690Z,1.20
2022-09-20T02:40:44.336Z,1.30
2022-09-20T02:43:19.304Z,1.70
2022-09-20T02:45:55.448Z,1.23
2022-09-20T02:48:25.272Z,1.55
2022-09-20T02:50:56.836Z,1.50
2022-09-20T02:53:29.895Z,1.25
2022-09-20T02:56:02.658Z,1.33
2022-09-20T02:58:38.784Z,1.30
2022-09-20T03:01:41.548Z,1.00
2022-09-20T03:04:27.387Z,1.10
2022-09-20T03:06:54.394Z,1.27
2022-09-20T03:09:31.775Z,1.60
2022-09-20T03:12:17.732Z,1.50
2022-09-20T03:14:59.870Z,1.70
2022-09-20T03:17:50.083Z,1.63
2022-09-20T03:20:31.583Z,1.17
2022-09-20T03:23:01.860Z,1.92
2022-09-20T03:25:34.698Z,1.70
2022-09-20T03:28:09.510Z,0.95
2022-09-20T03:30:55.391Z,1.38
2022-09-20T03:33:25.323Z,1.65
2022-09-20T03:36:02.311Z,1.27
2022-09-20T03:38:52.684Z,1.50
2022-09-20T03:41:46.002Z,1.50
2022-09-20T03:44:25.447Z,1.33
2022-09-20T03:46:57.231Z,1.15
2022-09-20T03:49:47.368Z,1.65
2022-09-20T03:52:52.654Z,1.98
2022-09-20T03:55:25.674Z,1.33
2022-09-20T03:58:08.096Z,1.95
2022-09-20T04:00:35.911Z,1.40
2022-09-20T04:03:14.670Z,1.50
2022-09-20T04:05:53.754Z,1.42
2022-09-20T04:08:35.728Z,1.70
2022-09-20T04:11:12.749Z,2.00
2022-09-20T04:16:30.401Z,1.40
2022-09-20T04:19:16.240Z,1.67
2022-09-20T04:21:46.492Z,2.30
2022-09-20T04:24:16.517Z,1.90
2022-09-20T04:26:49.403Z,1.85
2022-09-20T04:29:28.292Z,1.90
2022-09-20T04:32:03.773Z,1.58
2022-09-20T04:34:52.505Z,2.00
2022-09-20T04:37:25.692Z,2.00
2022-09-20T04:40:08.455Z,1.88
2022-09-20T04:42:58.896Z,1.53
2022-09-20T04:45:38.354Z,1.63
2022-09-20T04:48:14.385Z,1.70
2022-09-20T04:50:59.787Z,1.80
2022-09-20T04:53:26.770Z,1.85
2022-09-20T04:56:14.868Z,2.08
2022-09-20T04:58:57.359Z,1.77
2022-09-20T05:01:24.510Z,1.75
2022-09-20T05:04:22.903Z,1.55
2022-09-20T05:07:05.105Z,1.55
2022-09-20T05:09:41.291Z,1.20
2022-09-20T05:12:27.459Z,1.45
2022-09-20T05:15:11.513Z,2.10
2022-09-20T05:17:44.764Z,1.58
2022-09-20T05:20:30.386Z,1.80
2022-09-20T05:22:57.383Z,1.67
2022-09-20T05:25:44.338Z,1.85
2022-09-20T05:28:22.684Z,1.48
2022-09-20T05:31:00.240Z,1.67
2022-09-20T05:33:36.210Z,1.70
2022-09-20T05:36:03.217Z,1.50
2022-09-20T05:38:49.150Z,1.58
2022-09-20T05:41:37.299Z,1.60
2022-09-20T05:44:23.246Z,1.38
2022-09-20T05:46:50.329Z,1.83
2022-09-20T05:49:36.541Z,1.88
2022-09-20T05:52:12.777Z,1.45
2022-09-20T05:55:01.239Z,2.30
2022-09-20T05:57:34.232Z,1.90
2022-09-20T06:00:03.626Z,1.70
2022-09-20T06:02:48.087Z,1.73
2022-09-20T06:05:27.942Z,2.25
2022-09-20T06:08:02.298Z,2.22
2022-09-20T06:10:34.282Z,1.63
2022-09-20T06:13:09.577Z,2.00
2022-09-20T06:15:53.390Z,2.28
2022-09-20T06:18:26.870Z,1.52
2022-09-20T06:21:06.439Z,2.10
2022-09-20T06:23:35.342Z,2.13
2022-09-20T06:26:07.760Z,2.53
2022-09-20T06:28:36.251Z,2.10
2022-09-20T06:31:11.084Z,2.05
2022-09-20T06:33:44.298Z,2.10
2022-09-20T06:36:36.581Z,1.85
2022-09-20T06:39:22.491Z,2.05
2022-09-20T06:41:49.666Z,2.08
2022-09-20T06:44:17.709Z,3.50
2022-09-20T06:46:44.816Z,3.00
2022-09-20T06:49:12.109Z,2.50
2022-09-20T06:51:40.178Z,2.80
2022-09-20T06:54:11.296Z,2.90
2022-09-20T06:56:38.494Z,2.20
2022-09-20T06:59:08.456Z,2.50
2022-09-20T07:01:35.702Z,2.10
2022-09-20T07:04:03.340Z,2.10
2022-09-20T07:06:30.429Z,2.38
2022-09-20T07:08:57.445Z,2.58
2022-09-20T07:11:24.868Z,2.60
2022-09-20T07:13:53.759Z,2.53
2022-09-20T07:16:21.245Z,2.60
2022-09-20T07:18:49.492Z,2.00
2022-09-20T07:21:17.547Z,2.65
2022-09-20T07:23:51.254Z,1.98
2022-09-20T07:26:26.850Z,2.20
2022-09-20T07:28:54.604Z,2.15
2022-09-20T07:31:23.177Z,2.28
2022-09-20T07:33:50.494Z,2.15
2022-09-20T07:36:17.792Z,2.30
2022-09-20T07:38:48.542Z,1.65
2022-09-20T07:41:16.850Z,2.10
2022-09-20T07:43:44.080Z,2.00
2022-09-20T07:46:13.578Z,2.00
2022-09-20T07:48:41.611Z,2.00
2022-09-20T07:51:10.347Z,2.00
2022-09-20T07:53:38.113Z,1.98
2022-09-20T07:56:06.421Z,1.33
2022-09-20T07:58:34.568Z,1.90
2022-09-20T08:01:02.561Z,1.55
2022-09-20T08:03:31.370Z,1.35
2022-09-20T08:06:02.600Z,0.95
2022-09-20T08:08:32.501Z,1.00
2022-09-20T08:11:28.900Z,1.27
2022-09-20T08:14:06.027Z,0.85
2022-09-20T08:16:38.431Z,1.00
2022-09-20T08:19:05.632Z,0.77
2022-09-20T08:21:33.298Z,0.95
2022-09-20T08:24:00.737Z,1.00
2022-09-20T08:26:29.247Z,0.80
2022-09-20T08:28:58.105Z,0.90
2022-09-20T08:31:35.290Z,0.73
2022-09-20T08:34:04.103Z,1.05
2022-09-20T08:36:36.048Z,0.95
2022-09-20T08:41:56.610Z,0.70
2022-09-20T08:44:27.353Z,1.15
2022-09-20T08:47:02.586Z,1.13
2022-09-20T08:49:30.231Z,0.80
2022-09-20T08:51:59.008Z,0.73
2022-09-20T08:54:32.287Z,0.52
2022-09-20T08:57:05.114Z,0.93
2022-09-20T08:59:32.447Z,1.25
2022-09-20T09:02:00.049Z,1.00
2022-09-20T09:04:32.771Z,1.35
2022-09-20T09:06:59.815Z,1.30
2022-09-20T09:09:28.188Z,1.77
2022-09-20T09:11:56.387Z,0.98
2022-09-20T09:14:49.531Z,0.80
2022-09-20T09:17:18.515Z,0.95
2022-09-20T09:19:50.547Z,1.38
2022-09-20T09:22:37.114Z,0.80
2022-09-20T09:25:29.379Z,0.85
2022-09-20T09:28:06.128Z,0.50
2022-09-20T09:30:44.028Z,0.80
2022-09-20T09:33:30.614Z,1.08
2022-09-20T09:35:58.935Z,0.60
2022-09-20T09:38:31.015Z,0.90
2022-09-20T09:40:59.188Z,1.00
2022-09-20T09:43:29.257Z,1.00
2022-09-20T09:46:15.188Z,0.85
2022-09-20T09:48:42.343Z,1.05
2022-09-20T09:51:20.506Z,0.57
2022-09-20T09:53:51.432Z,0.70
2022-09-20T09:56:21.689Z,1.10
2022-09-20T09:58:48.831Z,0.70
2022-09-20T10:01:33.349Z,0.57
2022-09-20T10:04:21.440Z,1.13
2022-09-20T10:06:52.261Z,0.73
2022-09-20T10:09:29.775Z,0.98
2022-09-20T10:12:20.858Z,1.05
2022-09-20T10:15:07.184Z,0.60
2022-09-20T10:17:53.119Z,1.30
2022-09-20T10:20:39.187Z,0.70
2022-09-20T10:26:08.724Z,0.90
2022-09-20T10:28:56.251Z,0.80
2022-09-20T10:31:40.032Z,0.65
2022-09-20T10:34:10.554Z,0.82
2022-09-20T10:36:40.363Z,0.68
2022-09-20T10:39:26.230Z,0.40
2022-09-20T10:42:27.145Z,0.75
2022-09-20T10:45:36.317Z,0.70
2022-09-20T10:48:18.349Z,0.70
2022-09-20T10:50:45.487Z,0.85
2022-09-20T10:53:27.201Z,0.90
2022-09-20T10:55:59.165Z,1.05
2022-09-20T10:58:32.171Z,1.17
2022-09-20T11:01:00.701Z,0.52
2022-09-20T11:03:30.949Z,0.65
2022-09-20T11:06:00.702Z,0.50
2022-09-20T11:08:30.562Z,0.50
2022-09-20T11:11:20.876Z,0.70
2022-09-20T11:13:54.139Z,1.02
2022-09-20T11:18:56.122Z,0.90
2022-09-20T11:21:28.798Z,0.90
2022-09-20T11:24:03.097Z,1.10
2022-09-20T11:26:33.246Z,0.77
2022-09-20T11:29:19.653Z,0.98
2022-09-20T11:31:48.252Z,0.63
2022-09-20T11:34:34.401Z,0.90
2022-09-20T11:37:03.566Z,0.80
2022-09-20T11:39:51.412Z,1.00
2022-09-20T11:42:20.437Z,1.00
2022-09-20T11:44:48.124Z,1.75
2022-09-20T11:47:42.950Z,1.00
2022-09-20T11:50:29.129Z,1.17
2022-09-20T11:52:59.337Z,0.80
2022-09-20T11:55:42.772Z,0.80
2022-09-20T12:00:39.445Z,1.00
2022-09-20T12:03:08.606Z,1.05
2022-09-20T12:05:41.252Z,0.80
2022-09-20T12:08:18.173Z,1.20
2022-09-20T12:10:54.651Z,0.85
2022-09-20T12:13:25.056Z,0.85
2022-09-20T12:16:04.373Z,0.80
2022-09-20T12:18:52.597Z,0.98
2022-09-20T12:21:20.937Z,0.50
2022-09-20T12:24:01.554Z,0.93
2022-09-20T12:26:28.530Z,0.68
2022-09-20T12:28:58.948Z,0.82
2022-09-20T12:31:26.395Z,1.00
2022-09-20T12:33:59.530Z,0.75
2022-09-20T12:36:27.874Z,0.82
2022-09-20T12:39:03.502Z,0.60
2022-09-20T12:41:48.535Z,0.50
2022-09-20T12:44:37.694Z,0.60
2022-09-20T12:47:16.512Z,1.13
2022-09-20T12:50:08.579Z,1.08
2022-09-20T12:52:56.088Z,0.80
2022-09-20T12:55:30.005Z,0.93
2022-09-20T12:58:05.541Z,1.20
2022-09-20T13:00:45.046Z,0.90
2022-09-20T13:03:13.222Z,0.73
2022-09-20T13:05:41.830Z,0.88
2022-09-20T13:08:26.510Z,1.08
2022-09-20T13:11:14.955Z,0.80
2022-09-20T13:13:51.627Z,1.20
2022-09-20T13:16:25.256Z,1.02
2022-09-20T13:18:58.475Z,0.98
2022-09-20T13:23:55.528Z,0.82
2022-09-20T13:26:34.625Z,0.47
2022-09-20T13:29:03.444Z,0.90
2022-09-20T13:31:32.492Z,0.90
2022-09-20T13:34:18.404Z,0.98
2022-09-20T13:36:46.411Z,1.10
2022-09-20T13:39:36.006Z,0.82
2022-09-20T13:42:07.282Z,0.93
2022-09-20T13:44:34.778Z,1.02
2022-09-20T13:47:02.039Z,1.05
2022-09-20T13:49:32.829Z,1.25
2022-09-20T13:52:00.103Z,0.82
2022-09-20T13:54:28.446Z,0.93
2022-09-20T13:57:00.926Z,0.70
2022-09-20T13:59:33.298Z,1.02
2022-09-20T14:02:00.430Z,1.47
2022-09-20T14:04:29.107Z,0.65
2022-09-20T14:06:57.180Z,1.58
2022-09-20T14:09:29.485Z,1.20
2022-09-20T14:11:57.240Z,1.20
2022-09-20T14:14:24.888Z,0.60
2022-09-20T14:16:52.930Z,0.95
2022-09-20T14:19:21.869Z,1.42
2022-09-20T14:21:49.323Z,1.00
2022-09-20T14:24:25.732Z,1.23
2022-09-20T14:27:02.267Z,0.77
2022-09-20T14:29:35.799Z,1.10
2022-09-20T14:32:17.848Z,0.90
2022-09-20T14:34:46.699Z,1.02
2022-09-20T14:37:25.577Z,1.00
2022-09-20T14:39:56.969Z,0.70
2022-09-20T14:42:42.910Z,1.33
2022-09-20T14:45:30.825Z,1.40
2022-09-20T14:48:00.076Z,1.45
2022-09-20T14:50:29.365Z,1.40
2022-09-20T14:53:01.321Z,1.00
2022-09-20T14:55:28.846Z,1.15
2022-09-20T14:58:12.335Z,1.02
2022-09-20T15:03:08.770Z,1.15
2022-09-20T15:05:36.117Z,1.00
2022-09-20T15:08:04.190Z,1.08
2022-09-20T15:10:31.247Z,0.80
2022-09-20T15:12:58.590Z,0.93
2022-09-20T15:15:25.829Z,0.90
2022-09-20T15:17:52.947Z,1.17
2022-09-20T15:20:24.304Z,0.80
2022-09-20T15:22:52.114Z,1.10
2022-09-20T15:25:21.403Z,0.80
2022-09-20T15:27:52.206Z,0.70
2022-09-20T15:30:20.194Z,0.90
2022-09-20T15:32:47.908Z,0.65
2022-09-20T15:35:15.094Z,0.80
2022-09-20T15:37:42.485Z,1.08
2022-09-20T15:40:10.192Z,1.05
2022-09-20T15:42:37.963Z,0.70
2022-09-20T15:45:09.589Z,0.90
2022-09-20T15:47:37.320Z,0.73
2022-09-20T15:50:08.494Z,0.63
2022-09-20T15:52:40.854Z,1.10
2022-09-20T15:55:08.799Z,1.02
2022-09-20T15:57:36.143Z,0.85
2022-09-20T16:00:04.144Z,0.73
2022-09-20T16:02:31.417Z,0.50
2022-09-20T16:04:59.495Z,0.90
2022-09-20T16:07:26.725Z,1.00
2022-09-20T16:09:54.636Z,1.25
2022-09-20T16:12:22.816Z,1.17
2022-09-20T16:14:49.913Z,1.02
2022-09-20T16:17:17.694Z,0.98
2022-09-20T16:19:47.967Z,1.38
2022-09-20T16:22:16.228Z,1.33
2022-09-20T16:24:44.038Z,1.30
2022-09-20T16:27:11.202Z,2.08
2022-09-20T16:29:38.284Z,3.67
2022-09-20T16:32:05.703Z,2.25
2022-09-20T16:34:37.768Z,2.30
2022-09-20T16:37:07.686Z,1.13
2022-09-20T16:39:34.936Z,1.17
2022-09-20T16:42:04.727Z,0.88
2022-09-20T16:44:39.187Z,1.15
2022-09-20T16:47:09.917Z,0.90
2022-09-20T16:49:38.052Z,0.85
2022-09-20T16:52:05.634Z,1.00
2022-09-20T16:54:33.817Z,1.05
2022-09-20T16:57:02.086Z,0.85
2022-09-20T16:59:29.284Z,1.30
2022-09-20T17:01:56.295Z,1.08
2022-09-20T17:04:23.562Z,0.95
2022-09-20T17:06:52.634Z,1.10
2022-09-20T17:09:20.111Z,1.00
2022-09-20T17:11:49.931Z,1.25
2022-09-20T17:14:18.677Z,0.95
2022-09-20T17:16:49.088Z,1.00
2022-09-20T17:19:18.343Z,1.00
2022-09-20T17:21:49.567Z,1.00
2022-09-20T17:24:18.029Z,1.30
2022-09-20T17:26:45.919Z,1.00
2022-09-20T17:29:16.055Z,1.00
2022-09-20T17:31:50.040Z,1.10
2022-09-20T17:34:22.023Z,1.10
2022-09-20T17:36:50.194Z,1.10
2022-09-20T17:39:17.621Z,1.10
2022-09-20T17:41:46.613Z,1.30
2022-09-20T17:44:14.051Z,1.25
2022-09-20T17:46:42.382Z,1.48
2022-09-20T17:49:13.672Z,1.23
2022-09-20T17:51:42.768Z,1.05
2022-09-20T17:54:14.028Z,1.30
2022-09-20T17:56:46.139Z,0.95
2022-09-20T17:59:15.887Z,1.30
2022-09-20T18:01:43.973Z,1.00
2022-09-20T18:04:12.077Z,1.00
2022-09-20T18:06:46.690Z,1.08
2022-09-20T18:09:22.797Z,1.50
2022-09-20T18:11:50.979Z,1.65
2022-09-20T18:14:19.625Z,1.73
2022-09-20T18:16:47.257Z,1.50
2022-09-20T18:19:16.334Z,1.60
2022-09-20T18:21:43.955Z,1.00
2022-09-20T18:24:11.718Z,1.05
2022-09-20T18:26:39.017Z,0.80
2022-09-20T18:29:07.922Z,1.02
2022-09-20T18:31:44.605Z,1.02
2022-09-20T18:34:19.664Z,1.00
2022-09-20T18:36:57.564Z,1.15
2022-09-20T18:39:25.850Z,1.08
2022-09-20T18:41:53.707Z,0.90
2022-09-20T18:44:21.785Z,1.20
2022-09-20T18:46:49.319Z,0.98
2022-09-20T18:49:16.924Z,1.17
2022-09-20T18:51:44.703Z,0.77
2022-09-20T18:54:12.439Z,1.20
2022-09-20T18:56:40.610Z,1.00
2022-09-20T18:59:07.856Z,0.90
2022-09-20T19:01:34.982Z,1.10
2022-09-20T19:04:21.613Z,1.10
2022-09-20T19:07:14.302Z,0.95
2022-09-20T19:09:58.136Z,0.90
2022-09-20T19:12:38.948Z,1.70
2022-09-20T19:15:05.898Z,1.30
2022-09-20T19:17:52.962Z,1.30
2022-09-20T19:20:28.930Z,0.70
2022-09-20T19:23:16.209Z,1.55
2022-09-20T19:25:45.857Z,1.10
2022-09-20T19:28:13.742Z,0.70
2022-09-20T19:30:42.920Z,0.95
2022-09-20T19:33:17.714Z,1.10
2022-09-20T19:35:49.587Z,0.82
2022-09-20T19:38:31.693Z,0.98
2022-09-20T19:41:18.170Z,1.40
2022-09-20T19:43:48.057Z,1.40
2022-09-20T19:46:33.358Z,1.50
2022-09-20T19:49:11.620Z,1.50
2022-09-20T19:51:39.558Z,1.38
2022-09-20T19:54:06.857Z,1.80
2022-09-20T19:56:43.171Z,1.45
2022-09-20T19:59:10.625Z,1.70
2022-09-20T20:01:37.776Z,1.58
2022-09-20T20:04:05.366Z,1.52
2022-09-20T20:06:47.345Z,1.70
2022-09-20T20:09:14.618Z,1.88
2022-09-20T20:11:45.022Z,1.60
2022-09-20T20:14:33.752Z,1.75
2022-09-20T20:17:00.989Z,1.50
2022-09-20T20:19:46.798Z,1.27
2022-09-20T20:22:18.747Z,2.22
2022-09-20T20:24:45.987Z,1.90
2022-09-20T20:27:12.979Z,1.65
2022-09-20T20:29:40.074Z,1.60
2022-09-20T20:32:07.787Z,1.98
2022-09-20T20:34:36.002Z,1.75
2022-09-20T20:37:03.628Z,1.92
2022-09-20T20:39:32.020Z,1.63
2022-09-20T20:42:02.289Z,1.80
2022-09-20T20:44:36.447Z,2.00
2022-09-20T20:47:04.235Z,1.85
2022-09-20T20:49:31.659Z,1.90
2022-09-20T20:52:02.801Z,1.75
2022-09-20T20:54:29.851Z,1.65
2022-09-20T20:56:56.938Z,2.17
2022-09-20T20:59:25.504Z,1.33
2022-09-20T21:01:52.761Z,1.30
2022-09-20T21:04:19.935Z,1.33
2022-09-20T21:06:47.458Z,1.33
2022-09-20T21:09:14.439Z,1.50
2022-09-20T21:11:43.986Z,1.40
2022-09-20T21:14:12.930Z,1.67
2022-09-20T21:16:44.927Z,1.30
2022-09-20T21:19:14.727Z,2.20
2022-09-20T21:21:42.774Z,1.42
2022-09-20T21:24:11.118Z,1.70
2022-09-20T21:26:39.807Z,1.85
2022-09-20T21:29:10.879Z,2.25
2022-09-20T21:31:39.159Z,1.85
2022-09-20T21:34:07.378Z,2.10
2022-09-20T21:36:35.470Z,1.83
2022-09-20T21:39:02.559Z,1.50
2022-09-20T21:41:31.062Z,1.65
2022-09-20T21:44:00.001Z,1.42
2022-09-20T21:46:37.912Z,1.42
2022-09-20T21:49:05.698Z,1.60
2022-09-20T21:51:33.510Z,1.52
2022-09-20T21:54:01.928Z,1.42
2022-09-20T21:56:31.245Z,1.75
2022-09-20T21:58:59.467Z,1.35
2022-09-20T22:01:27.636Z,1.67
2022-09-20T22:03:59.031Z,1.38
2022-09-20T22:06:33.435Z,1.45
2022-09-20T22:09:01.658Z,1.10
2022-09-20T22:11:31.208Z,1.20
2022-09-20T22:13:59.092Z,1.38
2022-09-20T22:16:27.422Z,1.42
2022-09-20T22:18:55.769Z,1.55
2022-09-20T22:21:30.631Z,1.20
2022-09-20T22:24:02.626Z,1.38
2022-09-20T22:26:32.042Z,1.42
2022-09-20T22:28:59.606Z,1.23
2022-09-20T22:31:33.646Z,1.40
2022-09-20T22:34:02.144Z,1.13
2022-09-20T22:36:30.995Z,2.00
2022-09-20T22:38:58.155Z,1.33
2022-09-20T22:41:25.808Z,1.52
2022-09-20T22:43:53.126Z,2.03
2022-09-20T22:46:21.500Z,1.55
2022-09-20T22:48:49.592Z,1.38
2022-09-20T22:51:18.202Z,1.88
2022-09-20T22:53:46.124Z,1.30
2022-09-20T22:56:15.157Z,1.48
2022-09-20T22:58:44.097Z,1.63
2022-09-20T23:01:19.714Z,1.50
2022-09-20T23:03:48.578Z,1.60
2022-09-20T23:06:23.731Z,1.20
2022-09-20T23:08:51.923Z,1.90
2022-09-20T23:11:19.756Z,1.77
2022-09-20T23:13:47.442Z,1.38
2022-09-20T23:16:15.888Z,2.25
2022-09-20T23:18:43.577Z,1.33
2022-09-20T23:21:10.928Z,1.30
2022-09-20T23:23:38.546Z,1.88
2022-09-20T23:26:09.977Z,1.15
2022-09-20T23:28:37.785Z,1.40
2022-09-20T23:31:06.151Z,1.52
2022-09-20T23:33:33.772Z,1.42
2022-09-20T23:36:01.091Z,1.50
2022-09-20T23:38:28.504Z,1.25
2022-09-20T23:40:55.703Z,1.35
2022-09-20T23:43:23.148Z,1.40
2022-09-20T23:45:50.606Z,1.13
2022-09-20T23:48:17.774Z,1.20
2022-09-20T23:50:44.869Z,1.38
2022-09-20T23:53:12.282Z,1.25
2022-09-20T23:55:40.330Z,1.63
2022-09-20T23:58:07.589Z,1.67
